Time;durP1;ratioP1;P1;durP2;ratioP2;P2;SDS_P1;SDS_P2;PMS_P1;PMS_P2;Temp;Humidity;BMP_temperature;BMP_pressure;BME280_temperature;BME280_humidity;BME280_pressure;Samples;Min_cycle;Max_cycle;Signal;HPM_P1;HPM_P2
2021/08/12 00:00:57;;;;;;;21.03;11.90;;;16.50;99.90;;;;;;5019486;28;20210;-88
2021/08/12 00:03:23;;;;;;;23.13;12.87;;;16.50;99.90;;;;;;5020351;28;20724;-87
2021/08/12 00:05:48;;;;;;;20.70;11.83;;;16.50;99.90;;;;;;5020406;28;20175;-88
2021/08/12 00:08:14;;;;;;;21.30;12.20;;;16.50;99.90;;;;;;5034737;28;20776;-88
2021/08/12 00:10:40;;;;;;;19.93;11.87;;;16.50;99.90;;;;;;5017929;28;20213;-88
2021/08/12 00:13:05;;;;;;;20.33;11.30;;;16.50;99.90;;;;;;5034073;28;20226;-88
2021/08/12 00:15:31;;;;;;;19.30;12.63;;;16.50;99.90;;;;;;5017792;28;20316;-88
2021/08/12 00:17:57;;;;;;;17.97;11.23;;;16.50;99.90;;;;;;5017246;28;20174;-86
2021/08/12 00:20:22;;;;;;;17.77;12.80;;;16.40;99.90;;;;;;5033396;28;20248;-87
2021/08/12 00:22:48;;;;;;;19.87;12.67;;;16.40;99.90;;;;;;5033516;28;20229;-92
2021/08/12 00:25:14;;;;;;;24.13;11.90;;;16.40;99.90;;;;;;5033137;28;20705;-88
2021/08/12 00:27:40;;;;;;;24.20;11.83;;;16.40;99.90;;;;;;5033889;28;20210;-88
2021/08/12 00:30:06;;;;;;;19.10;11.17;;;16.40;99.90;;;;;;5016184;28;20637;-89
2021/08/12 00:32:31;;;;;;;23.07;13.43;;;16.30;99.90;;;;;;5033577;28;20178;-88
2021/08/12 00:34:57;;;;;;;22.67;11.23;;;16.30;99.90;;;;;;5051722;28;20304;-87
2021/08/12 00:37:23;;;;;;;21.80;11.97;;;16.30;99.90;;;;;;5033339;28;20606;-87
2021/08/12 00:39:48;;;;;;;20.07;10.07;;;16.30;99.90;;;;;;5052316;28;20213;-88
2021/08/12 00:42:14;;;;;;;20.40;10.53;;;16.30;99.90;;;;;;5018198;28;20429;-88
2021/08/12 00:44:40;;;;;;;15.90;10.13;;;16.30;99.90;;;;;;5051717;28;20217;-93
2021/08/12 00:47:06;;;;;;;25.43;11.60;;;16.20;99.90;;;;;;5015437;28;20569;-90
2021/08/12 00:49:36;;;;;;;20.47;11.10;;;16.20;99.90;;;;;;5033258;28;20238;-89
2021/08/12 00:52:03;;;;;;;18.63;11.10;;;16.20;99.90;;;;;;5032906;28;20226;-88
2021/08/12 00:54:29;;;;;;;17.73;11.43;;;16.20;99.90;;;;;;5033448;28;20271;-88
2021/08/12 00:56:54;;;;;;;18.10;10.90;;;16.10;99.90;;;;;;5035691;28;20178;-89
2021/08/12 00:59:20;;;;;;;22.87;11.67;;;16.10;99.90;;;;;;5018866;28;20216;-90
2021/08/12 01:01:46;;;;;;;22.47;12.63;;;16.10;99.90;;;;;;5035639;28;20287;-95
2021/08/12 01:04:11;;;;;;;21.80;13.60;;;16.10;99.90;;;;;;5020603;28;20221;-88
2021/08/12 01:07:11;;;;;;;25.47;13.60;;;16.10;99.90;;;;;;5039265;28;20581;-88
2021/08/12 01:09:47;;;;;;;24.93;12.13;;;16.10;99.90;;;;;;5033251;28;20209;-90
2021/08/12 01:12:42;;;;;;;24.67;14.37;;;16.10;99.90;;;;;;5055592;28;20166;-89
2021/08/12 01:15:15;;;;;;;24.73;12.70;;;16.10;99.90;;;;;;5036632;28;20639;-92
2021/08/12 01:17:52;;;;;;;23.53;12.60;;;16.10;99.90;;;;;;5035688;28;20220;-88
2021/08/12 01:20:41;;;;;;;26.00;12.77;;;16.10;99.90;;;;;;5052481;28;20238;-88
2021/08/12 01:24:24;;;;;;;22.00;12.37;;;16.10;99.90;;;;;;4992021;28;20235;-88
2021/08/12 01:31:05;;;;;;;20.50;12.27;;;16.00;99.90;;;;;;4991308;28;20182;-88
2021/08/12 01:34:02;;;;;;;20.43;11.77;;;15.90;99.90;;;;;;4999828;28;20213;-91
2021/08/12 01:36:29;;;;;;;27.53;13.37;;;15.90;99.90;;;;;;5032472;28;20206;-88
2021/08/12 01:38:57;;;;;;;21.70;12.13;;;15.90;99.90;;;;;;5051330;28;20247;-88
2021/08/12 01:41:25;;;;;;;19.33;13.07;;;15.90;99.90;;;;;;5034216;28;20209;-89
2021/08/12 01:43:51;;;;;;;12.03;7.30;;;15.90;99.90;;;;;;5034985;28;20317;-91
2021/08/12 01:46:18;;;;;;;7.37;6.40;;;15.60;99.90;;;;;;5033905;28;20296;-88
2021/08/12 01:48:44;;;;;;;17.57;5.57;;;15.40;99.90;;;;;;5033094;28;20259;-88
2021/08/12 01:51:13;;;;;;;14.80;5.33;;;15.00;99.90;;;;;;5018106;28;20177;-88
2021/08/12 01:53:38;;;;;;;56.33;6.97;;;14.60;99.90;;;;;;5052225;28;20292;-91
2021/08/12 01:56:06;;;;;;;9.20;4.80;;;14.50;99.90;;;;;;5034999;28;20292;-87
2021/08/12 01:58:32;;;;;;;45.37;7.17;;;14.40;99.90;;;;;;5052460;28;20360;-88
2021/08/12 02:01:00;;;;;;;16.00;4.93;;;14.30;99.90;;;;;;5034586;28;20681;-88
2021/08/12 02:03:26;;;;;;;13.60;4.53;;;14.20;99.90;;;;;;5018449;28;20685;-87
2021/08/12 02:05:55;;;;;;;16.93;7.47;;;14.10;99.90;;;;;;5035240;28;20182;-88
2021/08/12 02:08:21;;;;;;;18.60;9.67;;;14.30;99.90;;;;;;5052880;28;20217;-87
2021/08/12 02:10:51;;;;;;;23.90;11.50;;;14.70;99.90;;;;;;5035500;28;20271;-87
2021/08/12 02:29:47;;;;;;;23.30;13.37;;;15.80;99.90;;;;;;5050997;28;20193;-87
2021/08/12 02:32:45;;;;;;;24.63;13.87;;;15.90;99.90;;;;;;5039276;28;20222;-88
2021/08/12 02:47:15;;;;;;;14.03;7.47;;;15.00;99.90;;;;;;5055445;28;20286;-87
2021/08/12 02:53:23;;;;;;;7.80;5.60;;;14.70;99.90;;;;;;5055694;28;20244;-89
2021/08/12 02:55:50;;;;;;;6.53;5.17;;;14.70;99.90;;;;;;5037789;28;20254;-87
2021/08/12 02:58:16;;;;;;;9.77;6.37;;;14.70;99.90;;;;;;5038621;28;20233;-87
2021/08/12 03:00:42;;;;;;;12.60;8.00;;;14.80;99.90;;;;;;5022992;28;20201;-87
2021/08/12 03:03:50;;;;;;;13.47;8.37;;;14.90;99.90;;;;;;5057318;28;20241;-87
2021/08/12 03:09:59;;;;;;;18.33;9.23;;;15.30;99.90;;;;;;5056343;28;20352;-88
2021/08/12 03:16:14;;;;;;;16.47;10.57;;;15.50;99.90;;;;;;5056739;28;20165;-88
2021/08/12 03:18:40;;;;;;;21.70;10.03;;;15.60;99.90;;;;;;5022633;28;20221;-88
2021/08/12 03:21:31;;;;;;;17.57;10.33;;;15.60;99.90;;;;;;5022068;28;20513;-89
2021/08/12 03:31:38;;;;;;;16.07;8.90;;;15.60;99.90;;;;;;5057945;28;20682;-93
2021/08/12 03:34:04;;;;;;;16.07;10.07;;;15.60;99.90;;;;;;5037208;28;20178;-88
2021/08/12 03:36:30;;;;;;;19.77;9.37;;;15.60;99.90;;;;;;5021102;28;20666;-88
2021/08/12 03:38:55;;;;;;;14.20;10.00;;;15.50;99.90;;;;;;5022096;28;20200;-88
2021/08/12 03:41:21;;;;;;;16.00;8.90;;;15.60;99.90;;;;;;5037349;28;20439;-88
2021/08/12 03:43:47;;;;;;;13.40;10.20;;;15.50;99.90;;;;;;5020872;28;20245;-88
2021/08/12 03:46:12;;;;;;;16.57;8.67;;;15.50;99.90;;;;;;5037227;28;20216;-88
2021/08/12 03:48:38;;;;;;;13.47;8.67;;;15.40;99.90;;;;;;5054818;28;20697;-88
2021/08/12 03:51:04;;;;;;;14.80;8.93;;;15.40;99.90;;;;;;5003966;28;20202;-88
2021/08/12 03:53:30;;;;;;;15.60;9.40;;;15.40;99.90;;;;;;5038349;28;20182;-88
2021/08/12 03:55:59;;;;;;;15.97;9.60;;;15.30;99.90;;;;;;5037698;28;20218;-87
2021/08/12 03:58:25;;;;;;;15.40;9.17;;;15.40;99.90;;;;;;5055384;28;20673;-88
2021/08/12 04:00:50;;;;;;;11.17;8.07;;;15.40;99.90;;;;;;5020907;28;20296;-88
2021/08/12 04:06:57;;;;;;;20.00;9.57;;;15.60;99.90;;;;;;5034174;28;20630;-91
2021/08/12 04:09:23;;;;;;;18.80;8.13;;;15.60;99.90;;;;;;5015823;28;20233;-90
2021/08/12 04:11:48;;;;;;;13.63;7.63;;;15.60;99.90;;;;;;5016323;28;20571;-88
2021/08/12 04:14:14;;;;;;;18.23;9.60;;;15.60;99.90;;;;;;5005017;28;20279;-88
2021/08/12 04:16:40;;;;;;;17.40;10.37;;;15.60;99.90;;;;;;5016339;28;20237;-93
2021/08/12 04:19:06;;;;;;;20.53;10.97;;;15.60;99.90;;;;;;5016698;28;20218;-89
2021/08/12 04:21:32;;;;;;;18.10;11.03;;;15.70;99.90;;;;;;5019103;28;20232;-90
2021/08/12 04:23:58;;;;;;;21.50;11.77;;;15.70;99.90;;;;;;5015883;28;20202;-87
2021/08/12 04:26:27;;;;;;;23.93;10.97;;;15.60;99.90;;;;;;5034201;28;20219;-88
2021/08/12 04:28:54;;;;;;;14.67;9.93;;;15.60;99.90;;;;;;5015412;28;20218;-91
2021/08/12 04:31:20;;;;;;;16.07;8.70;;;15.60;99.90;;;;;;5032719;28;20231;-90
2021/08/12 04:33:46;;;;;;;15.73;9.50;;;15.40;99.90;;;;;;5015869;28;20569;-89
2021/08/12 04:36:12;;;;;;;18.03;10.20;;;15.30;99.90;;;;;;4999720;28;20273;-89
2021/08/12 04:38:37;;;;;;;14.70;8.77;;;15.30;99.90;;;;;;5033191;28;20178;-89
2021/08/12 04:41:03;;;;;;;22.60;10.73;;;15.40;99.90;;;;;;5016019;28;20217;-90
2021/08/12 04:43:30;;;;;;;21.97;11.47;;;15.50;99.90;;;;;;5013697;28;20222;-90
2021/08/12 04:45:56;;;;;;;24.80;12.97;;;15.60;99.90;;;;;;5013519;28;20567;-89
2021/08/12 04:48:22;;;;;;;27.47;13.50;;;15.60;99.90;;;;;;5013532;28;20179;-90
2021/08/12 04:50:48;;;;;;;23.30;13.87;;;15.70;99.90;;;;;;5031597;28;20643;-87
2021/08/12 04:53:14;;;;;;;24.10;13.37;;;15.80;99.90;;;;;;5029286;28;20623;-89
2021/08/12 04:55:40;;;;;;;27.87;14.43;;;15.80;99.90;;;;;;5028284;28;20214;-91
2021/08/12 04:58:06;;;;;;;25.30;13.77;;;15.90;99.90;;;;;;5030623;28;20214;-88
2021/08/12 05:00:33;;;;;;;25.83;14.67;;;16.00;99.90;;;;;;5015306;28;20279;-87
2021/08/12 05:02:59;;;;;;;29.90;14.50;;;16.10;99.90;;;;;;5033081;28;20234;-88
2021/08/12 05:05:24;;;;;;;31.53;14.30;;;16.10;99.90;;;;;;5032712;28;20252;-89
2021/08/12 05:07:50;;;;;;;26.17;14.20;;;16.20;99.90;;;;;;5032710;28;20183;-89
2021/08/12 05:10:16;;;;;;;24.90;15.37;;;16.20;99.90;;;;;;5016611;28;20167;-89
2021/08/12 05:12:42;;;;;;;21.33;12.80;;;16.20;99.90;;;;;;5028466;28;20403;-87
2021/08/12 05:15:08;;;;;;;29.17;12.07;;;16.20;99.90;;;;;;5011190;28;20178;-91
2021/08/12 05:17:34;;;;;;;22.87;13.47;;;16.20;99.90;;;;;;5028927;28;20183;-89
2021/08/12 05:19:59;;;;;;;21.70;12.63;;;16.20;99.90;;;;;;5026220;28;20265;-93
2021/08/12 05:22:25;;;;;;;32.37;12.00;;;16.40;99.90;;;;;;5009940;28;20238;-87
2021/08/12 05:24:51;;;;;;;30.23;12.93;;;16.40;99.90;;;;;;5027529;28;20226;-90
2021/08/12 05:27:18;;;;;;;26.13;13.37;;;16.60;99.90;;;;;;5026301;28;20178;-87
2021/08/12 05:29:44;;;;;;;20.93;11.50;;;16.60;99.90;;;;;;5010378;28;20262;-90
2021/08/12 05:32:10;;;;;;;21.83;12.33;;;16.70;99.90;;;;;;5026794;28;20276;-88
2021/08/12 05:34:35;;;;;;;27.53;12.73;;;16.80;99.90;;;;;;5026177;28;20210;-88
2021/08/12 05:37:01;;;;;;;24.50;11.70;;;17.10;99.90;;;;;;5009973;28;20241;-94
2021/08/12 05:39:27;;;;;;;20.60;11.30;;;17.60;99.90;;;;;;5010072;28;20214;-88
2021/08/12 05:41:54;;;;;;;24.97;14.73;;;18.10;99.90;;;;;;5011342;28;20269;-91
2021/08/12 05:44:19;;;;;;;23.67;15.47;;;18.60;99.90;;;;;;5009963;28;20226;-86
2021/08/12 05:46:45;;;;;;;25.07;13.43;;;20.30;99.90;;;;;;5026428;28;20211;-88
2021/08/12 05:49:12;;;;;;;21.60;10.73;;;21.60;99.90;;;;;;5026402;28;20709;-88
2021/08/12 05:51:38;;;;;;;15.53;10.60;;;22.10;99.90;;;;;;5027510;28;20261;-87
2021/08/12 05:54:06;;;;;;;18.17;10.43;;;23.10;99.90;;;;;;5027681;28;20185;-87
2021/08/12 05:56:32;;;;;;;15.57;9.13;;;24.10;99.90;;;;;;5026420;28;20213;-90
2021/08/12 05:58:57;;;;;;;15.13;8.33;;;25.60;99.90;;;;;;5030033;28;20242;-87
2021/08/12 06:01:23;;;;;;;16.23;9.13;;;27.10;99.90;;;;;;5013733;28;20239;-86
2021/08/12 06:03:49;;;;;;;13.57;8.30;;;28.10;99.90;;;;;;5030169;28;20226;-89
2021/08/12 06:06:15;;;;;;;14.27;8.20;;;29.40;99.90;;;;;;5030007;28;20183;-89
2021/08/12 06:08:41;;;;;;;12.35;8.15;;;29.70;99.90;;;;;;5013983;28;20529;-87
2021/08/12 06:11:07;;;;;;;16.75;9.75;;;29.90;99.90;;;;;;5013780;28;20299;-88
2021/08/12 06:13:33;;;;;;;16.80;9.77;;;30.00;99.90;;;;;;5029757;28;20272;-87
2021/08/12 06:15:59;;;;;;;12.27;8.43;;;30.00;99.90;;;;;;5030140;28;20218;-89
2021/08/12 06:18:25;;;;;;;13.57;7.93;;;30.70;99.90;;;;;;5029887;28;20241;-95
2021/08/12 06:20:51;;;;;;;18.25;8.65;;;30.80;99.90;;;;;;5013732;28;20183;-89
2021/08/12 06:23:17;;;;;;;14.52;8.40;;;30.10;99.90;;;;;;5030005;28;20575;-88
2021/08/12 06:25:42;;;;;;;16.55;8.77;;;30.70;99.90;;;;;;5013198;28;20233;-87
2021/08/12 06:28:09;;;;;;;11.35;7.63;;;31.50;99.90;;;;;;5031038;28;20654;-95
2021/08/12 06:30:35;;;;;;;12.48;7.57;;;31.90;99.90;;;;;;5031187;28;20305;-93
2021/08/12 06:33:01;;;;;;;11.27;7.00;;;31.10;99.90;;;;;;5015218;28;20265;-88
2021/08/12 06:35:31;;;;;;;12.20;7.15;;;30.50;99.90;;;;;;5013630;28;20284;-90
2021/08/12 06:37:57;;;;;;;15.98;8.65;;;28.60;99.90;;;;;;5030096;28;20214;-89
2021/08/12 06:40:24;;;;;;;14.27;8.02;;;28.90;99.90;;;;;;5031029;28;20248;-90
2021/08/12 06:42:52;;;;;;;10.85;7.53;;;29.90;99.90;;;;;;5029916;28;20211;-92
2021/08/12 06:45:19;;;;;;;11.77;7.30;;;30.70;99.90;;;;;;5030002;28;20167;-90
2021/08/12 06:47:46;;;;;;;12.52;7.40;;;31.10;99.90;;;;;;5031127;28;20228;-89
2021/08/12 06:50:14;;;;;;;11.77;7.78;;;31.20;99.90;;;;;;5029839;28;20853;-90
2021/08/12 06:52:40;;;;;;;11.75;8.02;;;30.00;99.90;;;;;;5029724;28;20234;-91
2021/08/12 06:55:06;;;;;;;12.50;8.07;;;29.40;99.90;;;;;;5029864;28;20234;-89
2021/08/12 06:57:32;;;;;;;11.98;7.82;;;29.40;99.90;;;;;;5029057;28;20713;-89
2021/08/12 06:59:57;;;;;;;13.15;7.75;;;28.80;99.90;;;;;;5013873;28;20175;-90
2021/08/12 07:02:23;;;;;;;10.10;8.20;;;28.30;99.90;;;;;;5029207;28;20669;-90
2021/08/12 07:04:49;;;;;;;12.02;7.78;;;27.90;99.90;;;;;;5029589;28;20620;-90
2021/08/12 07:07:15;;;;;;;13.43;8.23;;;28.50;99.90;;;;;;5013069;28;20226;-89
2021/08/12 07:09:42;;;;;;;12.23;7.78;;;29.50;99.90;;;;;;4988536;28;20179;-90
2021/08/12 07:12:09;;;;;;;12.18;7.80;;;29.50;99.90;;;;;;4980903;28;20199;-87
2021/08/12 07:14:35;;;;;;;11.80;8.18;;;27.90;99.90;;;;;;5028935;28;20215;-90
2021/08/12 07:17:01;;;;;;;12.50;8.88;;;25.40;99.90;;;;;;5012745;28;20442;-89
2021/08/12 07:19:27;;;;;;;13.85;8.68;;;24.40;99.90;;;;;;5030765;28;20682;-89
2021/08/12 07:21:53;;;;;;;15.63;9.68;;;23.70;99.90;;;;;;5028987;28;20297;-91
2021/08/12 07:24:19;;;;;;;13.63;9.70;;;23.60;99.90;;;;;;5028792;28;20757;-88
2021/08/12 07:26:47;;;;;;;16.58;9.32;;;23.50;99.90;;;;;;5029149;28;20173;-87
2021/08/12 07:29:17;;;;;;;15.23;8.95;;;24.30;99.90;;;;;;5012563;28;20222;-88
2021/08/12 07:31:44;;;;;;;15.55;9.55;;;25.50;99.90;;;;;;5031563;28;20307;-92
2021/08/12 07:34:10;;;;;;;15.05;8.25;;;26.40;99.90;;;;;;5031838;28;20248;-95
2021/08/12 07:36:37;;;;;;;18.48;10.48;;;26.10;99.90;;;;;;5029855;28;20210;-93
2021/08/12 07:39:04;;;;;;;13.27;9.05;;;25.50;99.90;;;;;;5014399;28;20206;-96
2021/08/12 07:41:31;;;;;;;14.52;9.18;;;25.20;99.90;;;;;;5030941;28;20211;-94
2021/08/12 07:43:56;;;;;;;15.55;8.75;;;25.90;99.90;;;;;;5031569;28;20218;-94
2021/08/12 07:46:22;;;;;;;14.48;8.43;;;25.20;99.90;;;;;;5013336;28;20690;-95
2021/08/12 07:48:48;;;;;;;17.25;8.80;;;25.30;99.90;;;;;;5013382;28;20663;-95
2021/08/12 07:51:14;;;;;;;18.80;9.18;;;25.60;99.90;;;;;;5013277;28;20229;-95
2021/08/12 07:53:39;;;;;;;16.02;9.18;;;25.70;99.90;;;;;;5029961;28;20399;-94
2021/08/12 07:56:05;;;;;;;16.52;9.48;;;26.00;99.90;;;;;;5013225;28;20210;-96
2021/08/12 07:58:31;;;;;;;13.38;8.60;;;25.50;99.90;;;;;;5029273;28;20640;-96
2021/08/12 08:01:01;;;;;;;12.88;8.80;;;25.00;99.90;;;;;;5030016;28;20211;-95
2021/08/12 08:03:26;;;;;;;11.50;8.30;;;24.80;99.90;;;;;;5013349;28;20791;-93
2021/08/12 08:05:52;;;;;;;18.33;8.10;;;26.60;99.90;;;;;;5031165;28;20233;-93
2021/08/12 08:08:29;;;;;;;19.30;9.07;;;27.70;99.90;;;;;;5037204;28;20376;-96
2021/08/12 08:11:08;;;;;;;12.98;8.80;;;29.10;99.90;;;;;;5044258;28;20420;-96
2021/08/12 08:16:40;;;;;;;18.15;8.88;;;30.10;99.90;;;;;;5044053;28;20229;-86
2021/08/12 08:19:05;;;;;;;17.05;8.95;;;29.20;99.90;;;;;;5011282;28;20214;-86
2021/08/12 08:21:31;;;;;;;14.43;9.43;;;29.20;99.90;;;;;;5012047;28;20210;-87
2021/08/12 08:23:57;;;;;;;15.85;8.88;;;29.60;99.90;;;;;;5022299;28;20245;-87
2021/08/12 08:26:23;;;;;;;14.75;8.90;;;30.70;99.90;;;;;;5036673;28;20210;-86
2021/08/12 08:28:48;;;;;;;16.13;9.13;;;31.00;99.90;;;;;;5019352;28;20210;-87
2021/08/12 08:31:14;;;;;;;13.25;8.52;;;31.20;99.90;;;;;;5022068;28;20217;-87
2021/08/12 08:33:40;;;;;;;15.00;10.38;;;31.80;99.90;;;;;;5019007;28;20213;-87
2021/08/12 08:36:06;;;;;;;14.23;8.80;;;31.30;99.90;;;;;;5022146;28;20269;-90
2021/08/12 08:38:32;;;;;;;15.73;9.50;;;30.80;99.90;;;;;;5038537;28;20220;-88
2021/08/12 08:40:58;;;;;;;12.52;8.00;;;31.50;99.90;;;;;;5019475;28;20270;-88
2021/08/12 08:43:24;;;;;;;15.32;9.10;;;31.30;99.90;;;;;;5021086;28;20225;-89
2021/08/12 08:45:51;;;;;;;14.68;8.75;;;31.40;99.90;;;;;;5015647;28;20683;-94
2021/08/12 08:48:19;;;;;;;19.65;8.55;;;32.10;99.90;;;;;;5003400;28;20726;-89
2021/08/12 08:50:45;;;;;;;18.98;8.30;;;31.80;99.90;;;;;;5014110;28;20174;-91
2021/08/12 08:53:16;;;;;;;17.48;8.45;;;31.60;99.90;;;;;;5037690;28;20308;-88
2021/08/12 08:55:42;;;;;;;14.70;8.05;;;31.20;99.90;;;;;;5053589;28;20217;-88
2021/08/12 08:58:08;;;;;;;15.07;7.00;;;30.80;99.90;;;;;;5021666;28;20225;-90
2021/08/12 09:00:35;;;;;;;12.38;7.07;;;30.40;99.90;;;;;;5022191;28;20217;-90
2021/08/12 09:03:01;;;;;;;11.50;8.00;;;31.20;99.90;;;;;;5019600;28;20229;-88
2021/08/12 09:05:27;;;;;;;13.75;7.50;;;31.70;99.90;;;;;;5004938;28;20720;-87
2021/08/12 09:07:53;;;;;;;13.13;7.72;;;31.60;99.90;;;;;;5022442;28;20201;-86
2021/08/12 09:10:19;;;;;;;15.25;7.72;;;30.60;99.90;;;;;;5018933;28;20225;-85
2021/08/12 09:12:46;;;;;;;14.15;7.57;;;30.60;99.90;;;;;;5038563;28;20217;-91
2021/08/12 09:15:19;;;;;;;9.15;6.95;;;30.60;99.90;;;;;;5042324;28;20225;-88
2021/08/12 09:17:46;;;;;;;14.55;7.97;;;31.30;99.90;;;;;;5075341;28;20203;-88
2021/08/12 09:20:19;;;;;;;11.30;7.07;;;31.30;99.90;;;;;;5041563;28;20216;-86
2021/08/12 09:22:53;;;;;;;16.92;8.20;;;30.70;99.90;;;;;;5059772;28;20624;-87
2021/08/12 09:25:41;;;;;;;12.00;7.10;;;30.60;99.90;;;;;;5065475;28;20227;-87
2021/08/12 09:28:20;;;;;;;12.98;7.05;;;29.80;99.90;;;;;;5058049;28;20236;-87
2021/08/12 09:31:01;;;;;;;10.00;6.97;;;29.90;99.90;;;;;;5058664;28;23920;-89
2021/08/12 09:33:28;;;;;;;9.98;6.97;;;30.70;99.90;;;;;;5056966;28;20230;-90
2021/08/12 09:35:55;;;;;;;10.55;5.07;;;30.70;99.90;;;;;;5055083;28;20182;-90
2021/08/12 09:38:24;;;;;;;8.13;5.07;;;31.40;99.90;;;;;;5039959;28;20220;-88
2021/08/12 09:41:00;;;;;;;10.93;4.50;;;31.20;99.90;;;;;;5037557;28;20205;-88
2021/08/12 09:43:33;;;;;;;7.57;4.88;;;30.70;99.90;;;;;;5049578;28;20217;-87
2021/08/12 09:45:59;;;;;;;8.43;5.40;;;30.50;99.90;;;;;;5039360;28;20212;-89
2021/08/12 09:48:27;;;;;;;9.00;5.47;;;30.20;99.90;;;;;;5057693;28;20203;-86
2021/08/12 09:51:02;;;;;;;8.02;5.15;;;29.70;99.90;;;;;;5041973;28;20185;-87
2021/08/12 09:53:31;;;;;;;9.55;5.28;;;30.30;99.90;;;;;;5056836;28;20466;-85
2021/08/12 09:56:09;;;;;;;7.20;4.63;;;30.00;99.90;;;;;;5030978;28;20209;-87
2021/08/12 09:58:36;;;;;;;10.27;4.68;;;31.20;99.90;;;;;;5057647;28;20224;-86
2021/08/12 10:01:25;;;;;;;7.43;4.35;;;30.60;99.90;;;;;;5039239;28;20281;-86
2021/08/12 10:03:51;;;;;;;8.40;4.07;;;30.80;99.90;;;;;;5038699;28;20275;-86
2021/08/12 10:06:20;;;;;;;6.15;4.22;;;31.40;99.90;;;;;;5037294;28;20467;-86
2021/08/12 10:08:47;;;;;;;5.72;3.65;;;32.30;99.90;;;;;;5057068;28;20226;-88
2021/08/12 10:11:26;;;;;;;9.13;4.22;;;31.00;99.90;;;;;;5056828;28;20592;-88
2021/08/12 10:13:57;;;;;;;5.22;3.20;;;31.80;99.90;;;;;;5055626;28;20956;-87
2021/08/12 10:16:26;;;;;;;9.07;4.07;;;32.50;99.90;;;;;;5055916;28;20271;-90
2021/08/12 10:18:54;;;;;;;5.53;4.10;;;32.00;99.90;;;;;;5052636;28;20579;-91
2021/08/12 10:21:20;;;;;;;5.50;3.88;;;31.70;99.60;;;;;;5064739;28;20619;-90
2021/08/12 10:23:51;;;;;;;4.78;3.38;;;31.30;99.90;;;;;;5057747;28;20204;-91
2021/08/12 10:26:19;;;;;;;4.28;3.55;;;30.50;99.90;;;;;;5057337;28;20216;-91
2021/08/12 10:28:48;;;;;;;6.40;3.28;;;30.60;99.90;;;;;;5037744;28;20316;-91
2021/08/12 10:31:21;;;;;;;8.05;4.25;;;30.10;99.90;;;;;;5056050;28;20270;-90
2021/08/12 10:33:48;;;;;;;10.70;4.00;;;30.00;99.90;;;;;;5058308;28;20215;-89
2021/08/12 10:36:16;;;;;;;6.07;4.03;;;30.40;99.90;;;;;;5038169;28;20193;-89
2021/08/12 10:38:42;;;;;;;5.10;3.33;;;31.00;99.90;;;;;;5057572;28;20546;-91
2021/08/12 10:41:09;;;;;;;3.92;3.40;;;30.90;99.90;;;;;;5039493;28;20216;-88
2021/08/12 10:43:35;;;;;;;7.38;3.72;;;30.30;99.90;;;;;;5050158;28;20314;-90
2021/08/12 10:46:03;;;;;;;5.50;3.78;;;29.90;99.90;;;;;;5054964;28;20219;-89
2021/08/12 10:48:30;;;;;;;5.47;4.05;;;29.30;99.90;;;;;;5059966;28;20693;-90
2021/08/12 10:51:06;;;;;;;8.63;4.40;;;29.20;99.90;;;;;;5062545;28;20180;-90
2021/08/12 10:53:33;;;;;;;7.60;4.90;;;29.10;99.90;;;;;;5058928;28;21072;-90
2021/08/12 10:56:15;;;;;;;10.77;5.03;;;29.00;99.90;;;;;;5040356;28;20209;-88
2021/08/12 10:58:43;;;;;;;5.72;4.13;;;28.70;99.90;;;;;;5060205;28;20224;-88
2021/08/12 11:01:25;;;;;;;7.60;4.32;;;28.40;99.90;;;;;;5045630;28;20216;-89
2021/08/12 11:03:53;;;;;;;9.30;4.78;;;28.90;99.90;;;;;;5058420;28;20270;-89
2021/08/12 11:06:21;;;;;;;10.10;5.50;;;28.90;99.90;;;;;;5041719;28;20193;-88
2021/08/12 11:11:22;;;;;;;8.35;5.03;;;27.90;99.90;;;;;;5078150;28;20224;-89
2021/08/12 11:13:50;;;;;;;10.10;5.50;;;27.20;99.90;;;;;;5067796;28;20250;-89
2021/08/12 11:16:16;;;;;;;9.73;5.88;;;27.50;99.90;;;;;;5058512;28;20268;-88
2021/08/12 11:18:49;;;;;;;7.82;5.35;;;27.60;99.90;;;;;;5042140;28;20302;-89
2021/08/12 11:21:30;;;;;;;9.43;5.30;;;27.90;99.90;;;;;;5058250;28;20193;-89
2021/08/12 11:24:09;;;;;;;8.20;4.80;;;27.70;99.90;;;;;;5059817;28;20204;-92
2021/08/12 11:26:41;;;;;;;6.68;4.85;;;28.40;99.90;;;;;;5059882;28;20209;-92
2021/08/12 11:29:27;;;;;;;7.13;3.92;;;28.20;99.90;;;;;;5059869;28;20254;-90
2021/08/12 11:32:05;;;;;;;4.75;3.90;;;27.40;99.90;;;;;;5045549;28;20225;-90
2021/08/12 11:34:41;;;;;;;6.60;4.22;;;26.90;99.90;;;;;;5057762;28;20209;-88
2021/08/12 11:37:19;;;;;;;5.97;4.10;;;26.90;99.90;;;;;;5057547;28;20787;-88
2021/08/12 11:39:56;;;;;;;5.82;4.25;;;27.00;99.90;;;;;;5057260;28;20208;-88
2021/08/12 11:42:34;;;;;;;6.70;4.57;;;27.60;99.90;;;;;;5059205;28;20193;-89
2021/08/12 11:45:03;;;;;;;7.18;3.53;;;26.10;99.90;;;;;;5075773;28;20212;-89
2021/08/12 11:47:29;;;;;;;4.53;3.10;;;26.10;99.90;;;;;;5059238;28;20231;-91
2021/08/12 11:49:57;;;;;;;4.85;3.90;;;26.30;99.90;;;;;;5044315;28;20217;-88
2021/08/12 11:52:27;;;;;;;5.65;3.40;;;26.70;99.90;;;;;;5059590;28;20236;-91
2021/08/12 11:55:21;;;;;;;7.82;4.15;;;26.90;99.90;;;;;;5055874;28;20229;-92
2021/08/12 11:57:52;;;;;;;6.30;3.38;;;27.00;99.90;;;;;;5052904;28;20684;-88
2021/08/12 12:00:29;;;;;;;6.90;3.67;;;26.40;99.90;;;;;;5039402;28;20195;-88
2021/08/12 12:02:55;;;;;;;7.60;3.70;;;26.50;99.90;;;;;;5041945;28;20686;-91
2021/08/12 12:05:29;;;;;;;6.47;4.15;;;26.80;99.90;;;;;;5049703;28;20241;-89
2021/08/12 12:07:58;;;;;;;4.53;3.60;;;26.70;99.90;;;;;;5044605;28;20209;-88
2021/08/12 12:10:30;;;;;;;5.50;4.10;;;26.30;99.90;;;;;;5058890;28;20197;-89
2021/08/12 12:13:08;;;;;;;4.72;3.28;;;26.10;99.90;;;;;;5060443;28;20574;-89
2021/08/12 12:15:36;;;;;;;3.95;3.38;;;25.70;99.90;;;;;;5058475;28;20227;-90
2021/08/12 12:18:02;;;;;;;3.80;2.70;;;25.90;99.90;;;;;;5044967;28;20269;-88
2021/08/12 12:20:29;;;;;;;5.05;2.95;;;25.90;99.90;;;;;;5057805;28;20554;-90
2021/08/12 12:23:01;;;;;;;8.00;3.47;;;26.00;99.90;;;;;;5056126;28;20208;-90
2021/08/12 12:25:29;;;;;;;6.53;3.10;;;26.30;99.90;;;;;;5055212;28;20267;-89
2021/08/12 12:27:56;;;;;;;4.05;2.83;;;26.60;99.90;;;;;;5039338;28;20624;-90
2021/08/12 12:30:23;;;;;;;4.78;2.83;;;26.50;99.90;;;;;;5076278;28;20947;-90
2021/08/12 12:33:07;;;;;;;7.35;3.50;;;25.90;99.90;;;;;;5072900;28;20180;-88
2021/08/12 12:35:39;;;;;;;7.78;3.15;;;25.90;99.90;;;;;;5058341;28;20311;-90
2021/08/12 12:38:07;;;;;;;10.55;3.13;;;26.20;99.90;;;;;;5069016;28;20257;-89
2021/08/12 12:40:35;;;;;;;4.10;3.03;;;26.30;99.90;;;;;;5041868;28;20656;-89
2021/08/12 12:43:02;;;;;;;4.75;3.00;;;26.20;99.90;;;;;;5056447;28;20205;-92
2021/08/12 12:45:42;;;;;;;4.45;3.15;;;26.30;99.90;;;;;;5042969;28;20558;-89
2021/08/12 12:48:11;;;;;;;7.07;3.78;;;26.40;99.90;;;;;;5064693;28;20176;-89
2021/08/12 12:50:49;;;;;;;3.63;2.78;;;25.90;99.90;;;;;;5041535;28;20335;-85
2021/08/12 12:53:31;;;;;;;8.30;3.97;;;25.90;99.90;;;;;;5041280;28;20730;-85
2021/08/12 12:55:58;;;;;;;6.05;3.42;;;26.20;99.90;;;;;;5058436;28;20262;-88
2021/08/12 12:58:26;;;;;;;5.28;3.90;;;26.00;99.90;;;;;;5040999;28;20224;-85
2021/08/12 13:01:09;;;;;;;5.38;2.88;;;26.00;99.90;;;;;;5058384;28;20213;-86
2021/08/12 13:03:54;;;;;;;4.63;3.05;;;26.00;99.90;;;;;;5040924;28;20235;-86
2021/08/12 13:06:32;;;;;;;4.35;2.85;;;25.60;99.90;;;;;;5057887;28;20676;-86
2021/08/12 13:08:58;;;;;;;5.63;3.08;;;25.60;99.90;;;;;;5055013;28;20196;-86
2021/08/12 13:11:32;;;;;;;4.72;3.70;;;26.00;99.90;;;;;;5039464;28;20700;-86
2021/08/12 13:14:09;;;;;;;5.95;3.20;;;26.10;99.90;;;;;;5040864;28;20217;-88
2021/08/12 13:16:47;;;;;;;3.83;2.55;;;26.10;99.90;;;;;;5054969;28;20787;-87
2021/08/12 13:19:24;;;;;;;3.70;3.30;;;26.10;99.90;;;;;;5073302;28;20217;-88
2021/08/12 13:21:56;;;;;;;5.07;3.30;;;25.50;99.90;;;;;;5058241;28;20553;-87
2021/08/12 13:24:34;;;;;;;4.25;2.85;;;25.80;99.90;;;;;;5059865;28;20774;-89
2021/08/12 13:27:00;;;;;;;3.92;2.58;;;25.60;99.90;;;;;;5056127;28;20177;-87
2021/08/12 13:29:26;;;;;;;4.10;3.05;;;25.60;99.90;;;;;;5040274;28;20220;-86
2021/08/12 13:32:01;;;;;;;5.18;2.80;;;25.80;99.90;;;;;;5056372;28;20220;-89
2021/08/12 13:34:27;;;;;;;7.30;3.78;;;26.30;99.90;;;;;;5075295;28;20208;-87
2021/08/12 13:36:52;;;;;;;4.57;2.97;;;26.40;99.90;;;;;;5049731;28;20280;-92
2021/08/12 13:39:20;;;;;;;3.38;2.65;;;26.70;99.90;;;;;;5043181;28;20216;-86
2021/08/12 13:41:49;;;;;;;4.03;3.00;;;26.90;99.90;;;;;;5042682;28;20204;-86
2021/08/12 13:44:19;;;;;;;6.47;3.45;;;26.60;99.90;;;;;;5058361;28;20252;-86
2021/08/12 13:46:46;;;;;;;5.63;2.80;;;26.50;99.90;;;;;;5038878;28;20225;-86
2021/08/12 13:49:11;;;;;;;5.90;2.85;;;26.20;99.90;;;;;;5057512;28;20213;-85